createdAt,value
2022-08-03T00:00:41.913Z,100395.81
2022-08-03T00:03:10.608Z,100377.66
2022-08-03T00:05:39.255Z,100385.25
2022-08-03T00:08:08.141Z,100392.13
2022-08-03T00:10:37.333Z,100381.09
2022-08-03T00:13:05.896Z,100398.19
2022-08-03T00:15:34.549Z,100380.94
2022-08-03T00:18:05.631Z,100386.47
2022-08-03T00:20:34.144Z,100398.84
2022-08-03T00:23:02.844Z,100385.44
2022-08-03T00:25:31.845Z,100400.25
2022-08-03T00:28:00.415Z,100413.69
2022-08-03T00:30:30.767Z,100411.22
2022-08-03T00:33:00.070Z,100405.88
2022-08-03T00:35:50.028Z,100407.38
2022-08-03T00:38:19.011Z,100413.88
2022-08-03T00:40:48.054Z,100398.03
2022-08-03T00:43:16.729Z,100424.25
2022-08-03T00:45:45.425Z,100394.19
2022-08-03T00:48:19.536Z,100416.34
2022-08-03T00:51:01.800Z,100414.84
2022-08-03T00:53:31.011Z,100417.00
2022-08-03T00:56:00.194Z,100431.81
2022-08-03T00:58:28.762Z,100428.72
2022-08-03T01:00:57.258Z,100401.22
2022-08-03T01:03:25.621Z,100419.97
2022-08-03T01:06:07.141Z,100424.88
2022-08-03T01:08:48.614Z,100426.69
2022-08-03T01:12:00.501Z,100449.50
2022-08-03T01:14:39.302Z,100450.34
2022-08-03T01:17:44.725Z,100439.63
2022-08-03T01:20:17.787Z,100420.38
2022-08-03T01:23:16.324Z,100443.13
2022-08-03T01:25:47.322Z,100446.94
2022-08-03T01:28:59.835Z,100446.78
2022-08-03T01:32:51.737Z,100459.78
2022-08-03T01:34:35.833Z,100450.22
2022-08-03T01:37:08.337Z,100439.22
2022-08-03T01:39:39.474Z,100446.47
2022-08-03T01:42:09.742Z,100436.94
2022-08-03T01:44:42.663Z,100462.06
2022-08-03T01:47:13.528Z,100442.03
2022-08-03T01:49:46.183Z,100452.31
2022-08-03T01:52:18.339Z,100463.28
2022-08-03T01:54:50.971Z,100471.72
2022-08-03T01:57:20.864Z,100465.19
2022-08-03T01:59:51.856Z,100457.75
2022-08-03T02:02:32.813Z,100474.06
2022-08-03T02:05:05.387Z,100473.03
2022-08-03T02:07:41.723Z,100485.22
2022-08-03T02:10:12.945Z,100475.09
2022-08-03T02:12:45.906Z,100461.94
2022-08-03T02:15:17.010Z,100478.13
2022-08-03T02:17:48.061Z,100460.59
2022-08-03T02:20:17.800Z,100487.56
2022-08-03T02:22:47.766Z,100484.59
2022-08-03T02:25:17.232Z,100481.63
2022-08-03T02:28:07.517Z,100492.66
2022-08-03T02:30:39.992Z,100502.13
2022-08-03T02:33:17.839Z,100497.97
2022-08-03T02:35:48.094Z,100477.97
2022-08-03T02:38:20.216Z,100487.22
2022-08-03T02:40:52.202Z,100496.78
2022-08-03T02:43:24.825Z,100459.31
2022-08-03T02:45:55.253Z,100505.94
2022-08-03T02:48:31.712Z,100491.78
2022-08-03T02:51:03.478Z,100496.88
2022-08-03T02:53:33.096Z,100519.28
2022-08-03T02:56:04.736Z,100510.78
2022-08-03T02:58:34.969Z,100502.25
2022-08-03T03:01:04.383Z,100517.78
2022-08-03T03:03:39.282Z,100503.88
2022-08-03T03:06:14.233Z,100512.09
2022-08-03T03:08:44.617Z,100501.03
2022-08-03T03:11:16.785Z,100512.13
2022-08-03T03:13:47.411Z,100521.09
2022-08-03T03:16:16.953Z,100501.53
2022-08-03T03:18:47.471Z,100522.69
2022-08-03T03:21:19.378Z,100523.63
2022-08-03T03:23:49.588Z,100517.75
2022-08-03T03:26:18.652Z,100525.81
2022-08-03T03:28:47.897Z,100522.44
2022-08-03T03:31:16.795Z,100517.47
2022-08-03T03:33:45.813Z,100516.41
2022-08-03T03:36:14.455Z,100518.13
2022-08-03T03:38:43.296Z,100523.22
2022-08-03T03:41:12.241Z,100524.09
2022-08-03T03:43:40.851Z,100522.34
2022-08-03T03:46:09.513Z,100532.34
2022-08-03T03:48:38.158Z,100522.41
2022-08-03T03:51:10.889Z,100532.03
2022-08-03T03:53:39.513Z,100530.88
2022-08-03T03:56:08.290Z,100531.88
2022-08-03T03:58:36.810Z,100553.28
2022-08-03T04:01:05.523Z,100544.94
2022-08-03T04:03:34.193Z,100543.09
2022-08-03T04:06:21.104Z,100554.22
2022-08-03T04:09:08.481Z,100550.94
2022-08-03T04:11:48.682Z,100547.47
2022-08-03T04:14:36.886Z,100562.25
2022-08-03T04:17:12.223Z,100567.75
2022-08-03T04:19:48.358Z,100553.19
2022-08-03T04:22:21.077Z,100567.53
2022-08-03T04:24:58.341Z,100524.09
2022-08-03T04:27:29.800Z,100558.50
2022-08-03T04:30:00.466Z,100565.75
2022-08-03T04:32:30.649Z,100551.56
2022-08-03T04:34:59.660Z,100563.63
2022-08-03T04:37:39.282Z,100544.72
2022-08-03T04:40:12.220Z,100571.66
2022-08-03T04:42:43.083Z,100562.41
2022-08-03T04:45:16.913Z,100552.69
2022-08-03T04:47:46.005Z,100558.03
2022-08-03T04:50:19.435Z,100573.25
2022-08-03T04:53:07.149Z,100579.34
2022-08-03T04:55:38.358Z,100563.53
2022-08-03T04:58:07.028Z,100553.66
2022-08-03T05:00:35.708Z,100561.00
2022-08-03T05:03:04.246Z,100562.69
2022-08-03T05:05:50.555Z,100556.50
2022-08-03T05:08:20.649Z,100560.63
2022-08-03T05:10:59.172Z,100562.75
2022-08-03T05:13:28.436Z,100564.09
2022-08-03T05:15:57.152Z,100559.91
2022-08-03T05:18:26.011Z,100549.00
2022-08-03T05:20:54.582Z,100541.91
2022-08-03T05:23:23.352Z,100561.09
2022-08-03T05:25:51.998Z,100559.25
2022-08-03T05:28:20.770Z,100554.09
2022-08-03T05:30:49.346Z,100565.31
2022-08-03T05:33:18.026Z,100546.72
2022-08-03T05:35:57.218Z,100564.56
2022-08-03T05:38:35.024Z,100539.13
2022-08-03T05:41:20.990Z,100542.13
2022-08-03T05:43:56.221Z,100550.91
2022-08-03T05:46:24.753Z,100562.25
2022-08-03T05:48:53.540Z,100563.25
2022-08-03T05:51:22.215Z,100564.53
2022-08-03T05:53:50.914Z,100568.41
2022-08-03T05:56:24.942Z,100567.63
2022-08-03T05:58:54.136Z,100572.81
2022-08-03T06:01:23.399Z,100560.13
2022-08-03T06:03:52.986Z,100574.53
2022-08-03T06:06:21.616Z,100564.09
2022-08-03T06:08:50.651Z,100566.88
2022-08-03T06:11:19.595Z,100570.00
2022-08-03T06:13:48.201Z,100568.69
2022-08-03T06:16:16.841Z,100574.50
2022-08-03T06:18:45.272Z,100542.72
2022-08-03T06:21:14.240Z,100574.53
2022-08-03T06:23:54.953Z,100574.63
2022-08-03T06:26:28.407Z,100574.22
2022-08-03T06:28:57.199Z,100580.50
2022-08-03T06:31:32.640Z,100571.50
2022-08-03T06:34:35.003Z,100570.72
2022-08-03T06:37:01.416Z,100586.72
2022-08-03T06:39:31.318Z,100568.94
2022-08-03T06:41:59.915Z,100572.59
2022-08-03T06:44:28.605Z,100577.22
2022-08-03T06:46:57.463Z,100566.44
2022-08-03T06:49:26.139Z,100571.63
2022-08-03T06:52:05.602Z,100574.69
2022-08-03T06:54:35.745Z,100563.56
2022-08-03T06:57:05.084Z,100559.31
2022-08-03T07:00:09.498Z,100544.94
2022-08-03T07:02:22.594Z,100564.56
2022-08-03T07:04:51.446Z,100558.13
2022-08-03T07:07:21.200Z,100568.44
2022-08-03T07:48:30.462Z,100539.28
2022-08-03T07:50:59.114Z,100537.75
2022-08-03T07:53:28.059Z,100554.84
2022-08-03T07:56:17.481Z,100542.31
2022-08-03T07:58:48.921Z,100536.56
2022-08-03T08:01:17.968Z,100543.53
2022-08-03T08:03:52.621Z,100555.38
2022-08-03T08:06:23.394Z,100551.03
2022-08-03T08:08:52.073Z,100559.13
2022-08-03T08:11:22.976Z,100560.50
2022-08-03T08:13:51.695Z,100552.22
2022-08-03T08:16:20.577Z,100556.81
2022-08-03T08:18:49.346Z,100548.31
2022-08-03T08:21:18.034Z,100539.47
2022-08-03T08:23:56.863Z,100550.00
2022-08-03T08:26:29.044Z,100546.63
2022-08-03T08:28:57.765Z,100550.63
2022-08-03T08:31:26.598Z,100554.69
2022-08-03T08:34:04.105Z,100554.03
2022-08-03T08:36:34.817Z,100547.09
2022-08-03T08:39:03.630Z,100559.44
2022-08-03T08:41:35.393Z,100544.53
2022-08-03T08:44:04.299Z,100548.53
2022-08-03T08:46:34.169Z,100534.63
2022-08-03T08:49:03.802Z,100530.53
2022-08-03T08:51:54.795Z,100529.91
2022-08-03T08:54:27.843Z,100546.53
2022-08-03T08:57:00.028Z,100544.16
2022-08-03T08:59:48.839Z,100528.94
2022-08-03T09:02:18.090Z,100546.53
2022-08-03T09:04:49.507Z,100519.47
2022-08-03T09:07:20.419Z,100522.19
2022-08-03T09:10:05.957Z,100512.69
2022-08-03T09:12:47.521Z,100514.00
2022-08-03T09:15:26.734Z,100530.56
2022-08-03T09:17:57.783Z,100518.06
2022-08-03T09:20:31.579Z,100504.00
2022-08-03T09:23:01.396Z,100539.72
2022-08-03T09:25:37.564Z,100537.19
2022-08-03T09:28:52.862Z,100532.69
2022-08-03T09:31:10.409Z,100537.41
2022-08-03T09:33:50.294Z,100538.09
2022-08-03T09:36:39.117Z,100536.69
2022-08-03T09:39:16.068Z,100526.97
2022-08-03T09:41:56.150Z,100531.53
2022-08-03T09:44:36.640Z,100522.41
2022-08-03T09:47:07.039Z,100507.47
2022-08-03T09:49:36.026Z,100523.75
2022-08-03T09:52:38.428Z,100530.09
2022-08-03T09:56:32.576Z,100528.06
2022-08-03T09:58:09.930Z,100526.09
2022-08-03T10:01:01.282Z,100532.28
2022-08-03T10:03:32.107Z,100530.38
2022-08-03T10:06:15.166Z,100535.28
2022-08-03T10:08:43.873Z,100518.38
2022-08-03T10:11:12.661Z,100510.59
2022-08-03T10:13:41.221Z,100530.88
2022-08-03T10:16:23.901Z,100518.97
2022-08-03T10:18:54.018Z,100521.63
2022-08-03T10:21:23.081Z,100521.31
2022-08-03T10:23:54.518Z,100530.13
2022-08-03T10:26:27.176Z,100521.03
2022-08-03T10:29:01.920Z,100524.69
2022-08-03T10:31:54.467Z,100513.41
2022-08-03T10:34:35.961Z,100513.97
2022-08-03T10:37:10.610Z,100517.03
2022-08-03T10:39:53.976Z,100518.09
2022-08-03T10:42:26.419Z,100505.09
2022-08-03T10:45:04.976Z,100518.78
2022-08-03T10:47:35.145Z,100516.75
2022-08-03T10:50:04.979Z,100512.69
2022-08-03T10:52:39.657Z,100512.34
2022-08-03T10:55:53.386Z,100525.91
2022-08-03T10:58:53.396Z,100521.31
2022-08-03T11:02:00.890Z,100529.31
2022-08-03T11:04:30.868Z,100519.19
2022-08-03T11:07:22.440Z,100527.66
2022-08-03T11:09:55.512Z,100530.16
2022-08-03T11:12:32.620Z,100519.66
2022-08-03T11:15:04.888Z,100509.16
2022-08-03T11:17:46.788Z,100494.31
2022-08-03T11:21:04.318Z,100527.69
2022-08-03T11:24:04.714Z,100513.28
2022-08-03T11:26:35.527Z,100529.34
2022-08-03T11:29:30.085Z,100527.34
2022-08-03T11:31:58.894Z,100521.06
2022-08-03T11:34:27.701Z,100513.44
2022-08-03T11:37:28.736Z,100525.94
2022-08-03T11:40:00.298Z,100527.31
2022-08-03T11:42:39.618Z,100513.94
2022-08-03T11:45:09.766Z,100514.78
2022-08-03T11:47:50.764Z,100519.53
2022-08-03T11:50:22.041Z,100515.13
2022-08-03T11:52:51.100Z,100509.03
2022-08-03T11:55:22.555Z,100495.16
2022-08-03T11:59:10.816Z,100509.06
2022-08-03T12:00:40.531Z,100505.50
2022-08-03T12:03:12.525Z,100486.84
2022-08-03T12:05:51.030Z,100498.22
2022-08-03T12:08:33.405Z,100479.44
2022-08-03T12:11:06.364Z,100486.53
2022-08-03T12:14:28.864Z,100508.03
2022-08-03T12:16:40.836Z,100515.84
2022-08-03T12:19:09.240Z,100507.38
2022-08-03T12:21:56.989Z,100507.38
2022-08-03T12:24:29.184Z,100484.34
2022-08-03T12:27:00.036Z,100502.97
2022-08-03T12:29:29.321Z,100507.34
2022-08-03T12:31:58.047Z,100502.28
2022-08-03T12:34:47.734Z,100509.72
2022-08-03T12:37:22.462Z,100491.97
2022-08-03T12:40:01.606Z,100493.66
2022-08-03T12:42:38.991Z,100502.28
2022-08-03T12:45:26.991Z,100494.66
2022-08-03T12:48:00.667Z,100477.56
2022-08-03T12:50:32.199Z,100496.19
2022-08-03T12:53:08.877Z,100503.13
2022-08-03T12:55:57.386Z,100499.22
2022-08-03T12:58:48.686Z,100501.25
2022-08-03T13:01:17.942Z,100510.06
2022-08-03T13:03:52.916Z,100511.06
2022-08-03T13:06:26.191Z,100507.34
2022-08-03T13:09:08.185Z,100509.00
2022-08-03T13:11:57.375Z,100499.16
2022-08-03T13:14:25.680Z,100506.25
2022-08-03T13:16:55.233Z,100505.94
2022-08-03T13:19:24.226Z,100497.47
2022-08-03T13:22:04.339Z,100504.56
2022-08-03T13:24:34.361Z,100510.63
2022-08-03T13:28:01.958Z,100497.56
2022-08-03T13:29:53.695Z,100500.44
2022-08-03T13:32:23.121Z,100485.19
2022-08-03T13:34:51.622Z,100500.53
2022-08-03T13:37:21.020Z,100494.63
2022-08-03T13:39:59.423Z,100489.03
2022-08-03T13:42:30.820Z,100508.13
2022-08-03T13:45:01.018Z,100504.06
2022-08-03T13:47:30.090Z,100497.22
2022-08-03T13:50:00.785Z,100506.34
2022-08-03T13:52:45.433Z,100504.97
2022-08-03T13:58:03.905Z,100518.41
2022-08-03T14:00:31.033Z,100514.50
2022-08-03T14:03:07.976Z,100522.78
2022-08-03T14:05:43.781Z,100508.63
2022-08-03T14:08:12.844Z,100518.28
2022-08-03T14:10:45.734Z,100519.44
2022-08-03T14:13:17.785Z,100520.94
2022-08-03T14:17:50.125Z,100532.13
2022-08-03T14:20:33.876Z,100467.47
2022-08-03T14:23:08.175Z,100526.59
2022-08-03T14:25:43.187Z,100512.47
2022-08-03T14:28:19.995Z,100523.25
2022-08-03T14:30:49.163Z,100513.19
2022-08-03T14:33:18.001Z,100529.91
2022-08-03T14:35:46.868Z,100500.28
2022-08-03T14:38:16.555Z,100540.09
2022-08-03T14:40:45.537Z,100532.53
2022-08-03T14:43:14.558Z,100537.53
2022-08-03T14:45:43.435Z,100550.16
2022-08-03T14:50:28.837Z,100544.44
2022-08-03T14:51:01.957Z,100546.88
2022-08-03T14:53:30.976Z,100474.63
2022-08-03T14:56:00.126Z,100540.84
2022-08-03T14:58:31.653Z,100505.25
2022-08-03T15:01:01.335Z,100542.63
2022-08-03T15:03:30.628Z,100548.44
2022-08-03T15:06:00.368Z,100555.56
2022-08-03T15:08:29.328Z,100543.13
2022-08-03T15:10:57.895Z,100550.22
2022-08-03T15:13:27.657Z,100551.81
2022-08-03T15:15:58.455Z,100554.38
2022-08-03T15:18:27.119Z,100565.44
2022-08-03T15:20:55.875Z,100560.34
2022-08-03T15:23:24.716Z,100563.03
2022-08-03T15:26:31.813Z,100558.06
2022-08-03T15:28:42.104Z,100567.13
2022-08-03T15:31:10.775Z,100562.00
2022-08-03T15:33:47.597Z,100563.84
2022-08-03T15:36:16.408Z,100569.34
2022-08-03T15:38:45.747Z,100571.28
2022-08-03T15:41:15.757Z,100567.84
2022-08-03T15:43:47.645Z,100561.44
2022-08-03T15:46:29.069Z,100583.06
2022-08-03T15:48:58.314Z,100574.84
2022-08-03T15:51:27.067Z,100568.13
2022-08-03T15:53:57.055Z,100574.59
2022-08-03T15:56:27.114Z,100579.94
2022-08-03T15:59:03.571Z,100582.56
2022-08-03T16:01:42.098Z,100583.47
2022-08-03T16:04:11.134Z,100574.22
2022-08-03T16:06:39.940Z,100581.13
2022-08-03T16:09:24.305Z,100580.88
2022-08-03T16:11:58.616Z,100580.44
2022-08-03T16:14:32.121Z,100558.69
2022-08-03T16:17:02.086Z,100587.44
2022-08-03T16:19:30.783Z,100581.88
2022-08-03T16:21:59.902Z,100577.63
2022-08-03T16:24:29.447Z,100570.91
2022-08-03T16:27:01.087Z,100594.06
2022-08-03T16:29:30.404Z,100604.81
2022-08-03T16:31:58.895Z,100586.22
2022-08-03T16:34:27.668Z,100590.00
2022-08-03T16:36:56.913Z,100603.41
2022-08-03T16:39:25.712Z,100596.00
2022-08-03T16:42:01.308Z,100601.84
2022-08-03T16:44:31.971Z,100606.50
2022-08-03T16:47:00.921Z,100594.25
2022-08-03T16:49:53.838Z,100594.09
2022-08-03T16:52:18.787Z,100591.56
2022-08-03T16:54:50.541Z,100600.91
2022-08-03T16:57:56.446Z,100580.00
2022-08-03T17:00:33.257Z,100595.94
2022-08-03T17:03:12.429Z,100595.59
2022-08-03T17:05:49.555Z,100595.00
2022-08-03T17:08:26.225Z,100603.03
2022-08-03T17:10:56.985Z,100596.56
2022-08-03T17:13:38.751Z,100586.31
2022-08-03T17:16:11.091Z,100605.69
2022-08-03T17:18:47.689Z,100599.59
2022-08-03T17:21:18.547Z,100615.94
2022-08-03T17:23:56.382Z,100576.34
2022-08-03T17:26:30.472Z,100571.47
2022-08-03T17:29:11.153Z,100586.31
2022-08-03T17:31:49.711Z,100576.97
2022-08-03T17:34:20.456Z,100593.63
2022-08-03T17:37:27.208Z,100593.38
2022-08-03T17:39:58.055Z,100587.06
2022-08-03T17:42:33.022Z,100600.94
2022-08-03T17:45:06.480Z,100563.69
2022-08-03T17:47:41.987Z,100585.13
2022-08-03T17:50:24.806Z,100605.56
2022-08-03T17:53:23.935Z,100604.84
2022-08-03T17:56:45.330Z,100605.69
2022-08-03T17:59:15.676Z,100615.28
2022-08-03T18:02:36.023Z,100609.66
2022-08-03T18:05:16.361Z,100613.56
2022-08-03T18:07:59.382Z,100597.38
2022-08-03T18:10:50.217Z,100602.59
2022-08-03T18:13:30.347Z,100607.94
2022-08-03T18:16:07.716Z,100611.59
2022-08-03T18:18:43.252Z,100600.09
2022-08-03T18:21:16.729Z,100617.84
2022-08-03T18:23:50.145Z,100611.28
2022-08-03T18:26:21.367Z,100609.25
2022-08-03T18:28:57.075Z,100602.69
2022-08-03T18:31:33.221Z,100610.91
2022-08-03T18:37:09.736Z,100608.41
2022-08-03T18:39:49.832Z,100598.41
2022-08-03T18:42:24.060Z,100601.22
2022-08-03T18:44:59.652Z,100603.13
2022-08-03T18:47:58.096Z,100610.81
2022-08-03T18:50:56.748Z,100594.94
2022-08-03T18:54:03.075Z,100620.03
2022-08-03T18:56:49.137Z,100613.31
2022-08-03T18:59:30.075Z,100608.19
2022-08-03T19:02:18.145Z,100609.38
2022-08-03T19:04:49.077Z,100598.28
2022-08-03T19:07:25.406Z,100597.53
2022-08-03T19:09:59.547Z,100619.44
2022-08-03T19:12:53.290Z,100606.63
2022-08-03T19:15:36.712Z,100601.50
2022-08-03T19:18:16.967Z,100609.19
2022-08-03T19:20:47.069Z,100611.13
2022-08-03T19:23:17.016Z,100595.56
2022-08-03T19:25:48.407Z,100579.91
2022-08-03T19:28:19.316Z,100602.16
2022-08-03T19:31:02.809Z,100600.59
2022-08-03T19:33:55.897Z,100598.13
2022-08-03T19:36:29.355Z,100604.25
2022-08-03T19:38:58.890Z,100615.13
2022-08-03T19:41:42.336Z,100599.97
2022-08-03T19:44:20.404Z,100610.34
2022-08-03T19:46:55.079Z,100598.50
2022-08-03T19:50:06.201Z,100611.44
2022-08-03T19:52:24.167Z,100564.97
2022-08-03T19:54:57.395Z,100609.91
2022-08-03T19:57:30.326Z,100599.34
2022-08-03T20:00:03.389Z,100614.84
2022-08-03T20:02:35.070Z,100600.72
2022-08-03T20:05:04.097Z,100603.84
2022-08-03T20:07:33.557Z,100616.75
2022-08-03T20:10:05.136Z,100597.75
2022-08-03T20:12:39.343Z,100603.94
2022-08-03T20:15:09.795Z,100605.88
2022-08-03T20:17:55.075Z,100609.91
2022-08-03T20:20:33.908Z,100605.75
2022-08-03T20:23:08.192Z,100600.88
2022-08-03T20:25:48.686Z,100600.75
2022-08-03T20:28:30.255Z,100616.91
2022-08-03T20:30:59.928Z,100606.63
2022-08-03T20:33:46.461Z,100598.81
2022-08-03T20:36:18.975Z,100616.13
2022-08-03T20:38:51.972Z,100598.94
2022-08-03T20:41:21.158Z,100592.31
2022-08-03T20:43:51.062Z,100617.28
2022-08-03T20:46:32.789Z,100595.19
2022-08-03T20:49:07.976Z,100607.56
2022-08-03T20:51:49.157Z,100611.31
2022-08-03T20:54:31.290Z,100615.38
2022-08-03T20:57:03.633Z,100617.81
2022-08-03T21:02:30.037Z,100623.91
2022-08-03T21:05:14.728Z,100602.69
2022-08-03T21:08:06.487Z,100609.47
2022-08-03T21:10:38.356Z,100603.84
2022-08-03T21:12:58.522Z,100606.25
2022-08-03T21:13:12.617Z,100616.66
2022-08-03T21:16:02.484Z,100603.41
2022-08-03T21:18:47.095Z,100617.06
2022-08-03T21:21:19.233Z,100604.59
2022-08-03T21:23:54.575Z,100613.13
2022-08-03T21:26:26.600Z,100604.16
2022-08-03T21:29:30.468Z,100608.81
2022-08-03T21:32:00.282Z,100600.81
2022-08-03T21:34:28.856Z,100602.22
2022-08-03T21:36:57.866Z,100613.94
2022-08-03T21:39:26.695Z,100613.16
2022-08-03T21:41:57.875Z,100611.69
2022-08-03T21:44:29.244Z,100605.69
2022-08-03T21:46:59.956Z,100606.88
2022-08-03T21:50:04.616Z,100631.19
2022-08-03T21:52:23.096Z,100613.25
2022-08-03T21:54:54.937Z,100623.31
2022-08-03T21:57:26.296Z,100621.41
2022-08-03T22:00:03.165Z,100625.03
2022-08-03T22:02:53.128Z,100619.16
2022-08-03T22:05:29.057Z,100627.69
2022-08-03T22:08:14.032Z,100628.94
2022-08-03T22:10:45.590Z,100617.31
2022-08-03T22:13:20.604Z,100618.16
2022-08-03T22:16:06.458Z,100595.25
2022-08-03T22:18:40.069Z,100621.13
2022-08-03T22:21:11.010Z,100621.31
2022-08-03T22:23:49.449Z,100631.78
2022-08-03T22:26:40.630Z,100625.78
2022-08-03T22:29:09.425Z,100619.81
2022-08-03T22:31:58.500Z,100607.56
2022-08-03T22:34:29.452Z,100627.25
2022-08-03T22:37:03.290Z,100620.53
2022-08-03T22:39:32.077Z,100619.69
2022-08-03T22:42:01.188Z,100618.81
2022-08-03T22:44:30.510Z,100611.31
2022-08-03T22:46:59.467Z,100632.25
2022-08-03T22:49:29.985Z,100620.94
2022-08-03T22:51:59.259Z,100597.75
2022-08-03T22:54:28.776Z,100587.66
2022-08-03T22:56:59.571Z,100573.41
2022-08-03T22:59:40.011Z,100623.38
2022-08-03T23:02:20.480Z,100620.81
2022-08-03T23:04:56.652Z,100625.97
2022-08-03T23:07:39.259Z,100615.69
2022-08-03T23:10:11.955Z,100627.75
2022-08-03T23:12:42.190Z,100618.91
2022-08-03T23:15:14.074Z,100626.03
2022-08-03T23:17:58.091Z,100624.84
2022-08-03T23:20:28.973Z,100601.31
2022-08-03T23:23:00.980Z,100622.53
2022-08-03T23:25:30.243Z,100630.22
2022-08-03T23:28:05.052Z,100618.28
2022-08-03T23:30:38.282Z,100622.63
2022-08-03T23:33:09.172Z,100615.88
2022-08-03T23:36:22.619Z,100613.19
2022-08-03T23:38:45.869Z,100638.28
2022-08-03T23:41:16.060Z,100609.88
2022-08-03T23:43:51.827Z,100617.41
2022-08-03T23:46:23.614Z,100633.03
2022-08-03T23:48:53.793Z,100617.84
2022-08-03T23:51:50.905Z,100637.59
2022-08-03T23:54:47.016Z,100637.94
2022-08-03T23:57:38.877Z,100640.94
